Racecast

Lucas Delorme

Heritage Christian (IN) · 10 · CO D2A2A · Compare head to head

Athlete rating 116.0 2026 TF season
Best race 119.1 TF
Races 28
Seasons 3 2024 — 2026

RankedNation #29034·CO #789·CO D2A #176·Team #18 ?

Speed rating — all races

Cross Country

XC speed rating

2025 XC 116.2

Heritage Christian (IN) · Grade 10

Date Meet Event Result Place Rating Difficulty PR/SR Flags
2025-11-01 Norris Penrose Event Center 5000m 18:16.8 46th · 2nd on team 117.9 +0.067 ★CR R CSR RSR
2025-10-23 Lyons Middle/Senior High School 5000m 17:50.4 8th · 1st on team 116.5 +0.020 ★CR CSR
2025-09-13 Heritage High School 5000m 17:24.5 20th · 1st on team 117.3 -0.001 ★PR ★CR R SR CSR RSR
2025-09-01 Toka Sticks Golf Course 5000m 17:32 25th · 1st on team 117.3 +0.009 PR ★CR R SR CSR RSR
2025-08-30 Fort Collins High School 5000m 17:58 68th · 1st on team 115.9 +0.023 PR ★CR R SR CSR RSR
2025-08-23 Spring Canyon Park 5000m 18:35 9th · 1st on team 112.1 +0.037 PR ★CR SR CSR RSR

2024 XC 109.4

Heritage Christian (IN) · Grade 9

Date Meet Event Result Place Rating Difficulty PR/SR Flags
2024-11-02 Norris Penrose Event Center 5000m 18:46.5 68th · 2nd on team 115.6 +0.067 PR CR R SR CSR RSR
2024-10-24 Lyons Middle/High School 5000m 18:48.3 15th · 3rd on team 112.5 +0.046 PR ★CR SR CSR
2024-09-21 Lyons Middle/High School 5000m 18:56.7 52nd · 2nd on team 113.1 +0.046 PR CR R SR CSR RSR
2024-09-14 Heritage High School 5000m 19:22.8 56th · 2nd on team 107.0 -0.001 PR CR R SR CSR RSR
2024-08-23 Norris Penrose Event Center 5000m 22:04.5 74th · 2nd on team 98.8 +0.067 PR CR R SR CSR RSR

Track & Field

TF speed rating

2026 TF 114.9

Heritage Christian (IN) · Grade 10

Date Meet Event Result Place Rating Difficulty PR/SR Flags
2026-05-09 Teddy's Last Chance 3200m 11:03.6 23rd · 1st on team 112.3 -0.014
2026-05-08 Hoka St. Vrain Invitational 1600m 4:48.36 109th · 3rd on team 119.1 -0.015 ★PR ★R SR RSR
2026-05-02 Three League Meet 3200m 10:39.03 6th · 2nd on team 116.8 -0.013 ★PR SR RSR
2026-04-28 Highland Twilight Invitational 800m 2:14.98 2nd · 1st on team 115.3 -0.003 ★PR SR RSR
2026-04-24 Longmont Invitational 1600m 5:04.94 48th · 1st on team 112.6 -0.015 PR SR
2026-04-18 Randall Hess Roughrider Invitational 3200m 10:47.93 16th · 1st on team 115.1 -0.014 PR SR RSR
2026-04-08 Randy Yaussi PSD Meet 800m 2:15.2 15th · 2nd on team 114.1 -0.012 PR SR
2026-04-04 Altitude Running Invitational 3200m 10:55.01 23rd · 1st on team 114.1 -0.012 PR SR RSR

2025 TF 110.4

Heritage Christian (IN) · Grade 9

Date Meet Event Result Place Rating Difficulty PR/SR Flags
2025-05-02 Three League Meet: Granite Peaks, Foothills, Mile High 1600m 5:11.46 15th · 3rd on team 110.3 -0.013
2025-05-02 Three League Meet: Granite Peaks, Foothills, Mile High 3200m 11:18.01 7th · 1st on team 109.6 -0.013
2025-04-29 Highland Twilight Invitational 1600m 5:19.18 6th · 1st on team 109.1 -0.003
2025-04-26 Cowboy Invitational 3200m 11:14.82 8th · 1st on team 110.5 -0.012 PR SR
2025-04-23 NOCO MVHS - TVHS Qualifier 800m 2:20.84 20th · 1st on team 109.8 -0.007 PR SR
2025-04-23 NOCO MVHS - TVHS Qualifier 1600m 5:07.9 10th · 1st on team 112.1 -0.007
2025-04-15 MHI 800m 2:21.22 11th · 2nd on team 109.2 -0.011 PR SR
2025-04-15 MHI 1600m 5:11.62 5th · 1st on team 110.5 -0.011
2025-04-05 Altitude Running Invite 1600m 5:06.63 25th · 3rd on team 112.2 -0.012 PR SR RSR